Time;durP1;ratioP1;P1;durP2;ratioP2;P2;SDS_P1;SDS_P2;PMS_P1;PMS_P2;Temp;Humidity;BMP_temperature;BMP_pressure;BME280_temperature;BME280_humidity;BME280_pressure;Samples;Min_cycle;Max_cycle;Signal;HPM_P1;HPM_P2
2023/05/19 00:01:00;;;;;;;22.83;6.43;;;;;;;;;;6188429;23;20009;-86
2023/05/19 00:03:26;;;;;;;15.80;6.55;;;;;;;;;;6160623;23;20448;-87
2023/05/19 00:05:53;;;;;;;12.95;6.03;;;;;;;;;;6162001;23;20017;-86
2023/05/19 00:08:19;;;;;;;12.70;5.55;;;;;;;;;;6161555;23;20048;-87
2023/05/19 00:10:46;;;;;;;20.95;7.18;;;;;;;;;;6134917;23;20009;-85
2023/05/19 00:13:12;;;;;;;17.27;7.32;;;;;;;;;;6135963;23;20016;-85
2023/05/19 00:15:38;;;;;;;15.38;6.22;;;;;;;;;;6161290;23;20021;-82
2023/05/19 00:18:07;;;;;;;18.05;7.63;;;;;;;;;;6161030;23;20021;-86
2023/05/19 00:20:33;;;;;;;12.90;5.78;;;;;;;;;;6161715;23;20013;-86
2023/05/19 00:22:59;;;;;;;21.00;7.28;;;;;;;;;;6160755;23;20017;-86
2023/05/19 00:25:26;;;;;;;18.83;8.02;;;;;;;;;;6159309;23;20060;-86
2023/05/19 00:27:52;;;;;;;20.23;8.40;;;;;;;;;;6187110;23;20019;-85
2023/05/19 00:30:18;;;;;;;19.45;7.78;;;;;;;;;;6187259;23;20028;-85
2023/05/19 00:32:44;;;;;;;19.50;7.40;;;;;;;;;;6135430;23;20009;-86
2023/05/19 00:35:10;;;;;;;19.85;7.68;;;;;;;;;;6160246;23;20023;-86
2023/05/19 00:37:36;;;;;;;16.23;6.80;;;;;;;;;;6187232;23;20009;-86
2023/05/19 00:40:04;;;;;;;17.30;7.18;;;;;;;;;;6159744;23;20048;-85
2023/05/19 00:42:31;;;;;;;15.50;6.85;;;;;;;;;;6136462;23;20017;-86
2023/05/19 00:44:57;;;;;;;15.27;7.28;;;;;;;;;;6188880;23;20487;-84
2023/05/19 00:47:23;;;;;;;21.27;7.82;;;;;;;;;;6138331;23;20013;-86
2023/05/19 00:49:49;;;;;;;14.80;8.07;;;;;;;;;;6190302;23;20036;-86
2023/05/19 00:52:15;;;;;;;17.52;8.15;;;;;;;;;;6161859;23;20020;-86
2023/05/19 00:54:42;;;;;;;22.42;8.05;;;;;;;;;;6163899;23;20017;-86
2023/05/19 00:57:09;;;;;;;13.48;6.55;;;;;;;;;;6162412;23;20052;-86
2023/05/19 00:59:35;;;;;;;18.90;7.30;;;;;;;;;;6189296;23;20009;-86
2023/05/19 01:02:01;;;;;;;22.10;7.85;;;;;;;;;;6139386;23;20312;-86
2023/05/19 01:04:28;;;;;;;19.08;7.80;;;;;;;;;;6188924;23;20013;-86
2023/05/19 01:06:54;;;;;;;24.27;8.20;;;;;;;;;;6162344;23;20061;-86
2023/05/19 01:09:21;;;;;;;19.05;8.18;;;;;;;;;;6139014;23;20017;-86
2023/05/19 01:11:47;;;;;;;20.38;8.07;;;;;;;;;;6138299;23;20012;-86
2023/05/19 01:14:14;;;;;;;15.60;7.43;;;;;;;;;;6137906;23;20088;-87
2023/05/19 01:16:42;;;;;;;20.15;8.52;;;;;;;;;;6161719;23;20016;-86
2023/05/19 01:19:29;;;;;;;17.33;7.20;;;;;;;;;;6137772;23;20025;-86
2023/05/19 01:22:25;;;;;;;21.35;7.30;;;;;;;;;;6163869;23;20083;-87
2023/05/19 01:25:11;;;;;;;21.67;8.60;;;;;;;;;;6149569;23;20071;-86
2023/05/19 01:27:57;;;;;;;22.05;7.55;;;;;;;;;;6189234;23;20027;-86
2023/05/19 01:30:35;;;;;;;18.35;7.20;;;;;;;;;;6189235;23;20409;-86
2023/05/19 01:33:02;;;;;;;14.68;7.10;;;;;;;;;;6189595;23;20009;-86
2023/05/19 01:35:31;;;;;;;16.98;7.35;;;;;;;;;;6188808;23;20025;-87
2023/05/19 01:37:58;;;;;;;11.07;6.40;;;;;;;;;;6189475;23;20032;-86
2023/05/19 01:40:25;;;;;;;23.58;7.65;;;;;;;;;;6163174;23;20013;-86
2023/05/19 01:42:52;;;;;;;19.55;6.82;;;;;;;;;;6161609;23;20067;-86
2023/05/19 01:45:19;;;;;;;22.98;6.72;;;;;;;;;;6162205;23;20021;-86
2023/05/19 01:47:46;;;;;;;17.35;7.07;;;;;;;;;;6138107;23;20024;-86
2023/05/19 01:50:12;;;;;;;18.38;6.78;;;;;;;;;;6161926;23;20013;-86
2023/05/19 01:52:38;;;;;;;15.82;6.43;;;;;;;;;;6138455;23;20112;-86
2023/05/19 01:55:05;;;;;;;13.30;6.40;;;;;;;;;;6187534;23;20013;-86
2023/05/19 01:57:50;;;;;;;16.13;6.63;;;;;;;;;;6138042;23;20013;-86
2023/05/19 02:00:21;;;;;;;20.98;7.05;;;;;;;;;;6162119;23;20372;-86
2023/05/19 02:02:53;;;;;;;12.35;6.68;;;;;;;;;;6163421;23;20048;-85
2023/05/19 02:05:29;;;;;;;19.02;7.28;;;;;;;;;;6163189;23;20116;-86
2023/05/19 02:07:59;;;;;;;16.55;7.00;;;;;;;;;;6187884;23;20092;-86
2023/05/19 02:10:31;;;;;;;19.90;6.80;;;;;;;;;;6161257;23;20047;-86
2023/05/19 02:12:59;;;;;;;15.68;7.18;;;;;;;;;;6187877;23;20013;-86
2023/05/19 02:15:28;;;;;;;13.35;5.78;;;;;;;;;;6162908;23;20013;-86
2023/05/19 02:17:55;;;;;;;13.90;6.10;;;;;;;;;;6137160;23;20059;-86
2023/05/19 02:20:21;;;;;;;24.23;7.88;;;;;;;;;;6136883;23;20012;-87
2023/05/19 02:22:48;;;;;;;15.52;6.10;;;;;;;;;;6162909;23;20103;-86
2023/05/19 02:25:14;;;;;;;17.80;7.22;;;;;;;;;;6161755;23;20041;-86
2023/05/19 02:27:41;;;;;;;18.05;6.95;;;;;;;;;;6136899;23;20344;-86
2023/05/19 02:30:07;;;;;;;13.52;6.38;;;;;;;;;;6137409;23;20071;-86
2023/05/19 02:32:33;;;;;;;13.90;5.93;;;;;;;;;;6162633;23;20013;-87
2023/05/19 02:34:59;;;;;;;19.10;6.50;;;;;;;;;;6137273;23;20036;-85
2023/05/19 02:37:27;;;;;;;16.23;6.40;;;;;;;;;;6161869;23;20096;-86
2023/05/19 02:39:53;;;;;;;14.00;6.40;;;;;;;;;;6136828;23;20009;-86
2023/05/19 02:42:19;;;;;;;20.40;6.22;;;;;;;;;;6162637;23;20032;-85
2023/05/19 02:44:45;;;;;;;12.95;5.35;;;;;;;;;;6161194;23;20044;-86
2023/05/19 02:47:12;;;;;;;12.88;6.03;;;;;;;;;;6161926;23;20024;-85
2023/05/19 02:49:38;;;;;;;19.48;6.50;;;;;;;;;;6161567;23;20017;-87
2023/05/19 02:52:04;;;;;;;15.32;5.32;;;;;;;;;;6136884;23;20100;-87
2023/05/19 02:54:31;;;;;;;16.23;5.88;;;;;;;;;;6136051;23;20036;-86
2023/05/19 02:56:57;;;;;;;19.77;7.72;;;;;;;;;;6136412;23;20136;-87
2023/05/19 02:59:23;;;;;;;16.38;6.40;;;;;;;;;;6162169;23;20017;-86
2023/05/19 03:01:50;;;;;;;15.80;6.47;;;;;;;;;;6136337;23;20013;-86
2023/05/19 03:04:18;;;;;;;16.08;6.90;;;;;;;;;;6161238;23;20328;-87
2023/05/19 03:06:45;;;;;;;17.85;7.18;;;;;;;;;;6161485;23;20060;-86
2023/05/19 03:09:12;;;;;;;16.50;6.88;;;;;;;;;;6188899;23;20013;-86
2023/05/19 03:11:38;;;;;;;18.15;7.55;;;;;;;;;;6161172;23;20043;-87
2023/05/19 03:14:04;;;;;;;19.77;7.72;;;;;;;;;;6161303;23;20032;-86
2023/05/19 03:16:31;;;;;;;15.45;6.88;;;;;;;;;;6187093;23;20025;-86
2023/05/19 03:18:58;;;;;;;16.42;7.07;;;;;;;;;;6160542;23;20087;-86
2023/05/19 03:21:24;;;;;;;16.98;6.47;;;;;;;;;;6160687;23;20017;-85
2023/05/19 03:23:50;;;;;;;16.85;7.57;;;;;;;;;;6137227;23;20020;-84
2023/05/19 03:26:16;;;;;;;17.65;7.90;;;;;;;;;;6160713;23;20017;-86
2023/05/19 03:28:42;;;;;;;22.58;8.38;;;;;;;;;;6186885;23;20017;-87
2023/05/19 03:31:08;;;;;;;22.13;8.25;;;;;;;;;;6161289;23;20042;-86
2023/05/19 03:33:34;;;;;;;18.58;8.25;;;;;;;;;;6161332;23;20017;-86
2023/05/19 03:36:00;;;;;;;15.13;6.88;;;;;;;;;;6160900;23;20088;-87
2023/05/19 03:38:26;;;;;;;25.80;8.43;;;;;;;;;;6136170;23;20089;-86
2023/05/19 03:40:52;;;;;;;20.23;8.05;;;;;;;;;;6137132;23;20013;-86
2023/05/19 03:43:18;;;;;;;17.10;7.55;;;;;;;;;;6135880;23;20029;-86
2023/05/19 03:45:45;;;;;;;20.33;8.48;;;;;;;;;;6135600;23;20016;-86
2023/05/19 03:48:11;;;;;;;15.65;7.85;;;;;;;;;;6160824;23;20024;-86
2023/05/19 03:50:37;;;;;;;17.15;8.13;;;;;;;;;;6161735;23;20078;-86
2023/05/19 03:53:03;;;;;;;17.15;8.20;;;;;;;;;;6160728;23;20023;-87
2023/05/19 03:55:29;;;;;;;16.20;6.72;;;;;;;;;;6137352;23;20013;-87
2023/05/19 03:57:56;;;;;;;19.85;8.32;;;;;;;;;;6137813;23;20009;-86
2023/05/19 04:00:22;;;;;;;17.52;9.18;;;;;;;;;;6136681;23;20024;-86
2023/05/19 04:02:48;;;;;;;15.55;7.60;;;;;;;;;;6161195;23;20072;-85
2023/05/19 04:05:14;;;;;;;18.48;9.35;;;;;;;;;;6136891;23;20048;-85
2023/05/19 04:07:41;;;;;;;14.77;7.70;;;;;;;;;;6160959;23;20118;-86
2023/05/19 04:10:07;;;;;;;18.73;7.85;;;;;;;;;;6160246;23;20017;-86
2023/05/19 04:12:33;;;;;;;17.55;7.53;;;;;;;;;;6160792;23;20048;-86
2023/05/19 04:15:00;;;;;;;16.00;8.20;;;;;;;;;;6160639;23;20020;-87
2023/05/19 04:17:26;;;;;;;12.05;7.07;;;;;;;;;;6137061;23;20064;-87
2023/05/19 04:19:53;;;;;;;18.05;7.65;;;;;;;;;;6190946;23;20040;-86
2023/05/19 04:22:19;;;;;;;17.65;7.45;;;;;;;;;;6139730;23;20017;-85
2023/05/19 04:24:46;;;;;;;12.90;7.07;;;;;;;;;;6139779;23;20013;-86
2023/05/19 04:27:12;;;;;;;21.30;8.05;;;;;;;;;;6163113;23;20452;-87
2023/05/19 04:29:39;;;;;;;18.58;8.38;;;;;;;;;;6138031;23;20024;-86
2023/05/19 04:32:06;;;;;;;15.80;7.80;;;;;;;;;;6162131;23;20017;-86
2023/05/19 04:34:32;;;;;;;12.65;7.38;;;;;;;;;;6160965;23;20021;-86
2023/05/19 04:36:58;;;;;;;13.65;6.57;;;;;;;;;;6162778;23;20017;-85
2023/05/19 04:39:24;;;;;;;16.58;7.93;;;;;;;;;;6138729;23;20092;-85
2023/05/19 04:41:52;;;;;;;12.52;6.88;;;;;;;;;;6137356;23;20068;-87
2023/05/19 04:44:19;;;;;;;13.20;7.25;;;;;;;;;;6162237;23;20116;-86
2023/05/19 04:46:45;;;;;;;14.95;7.10;;;;;;;;;;6164152;23;20076;-86
2023/05/19 04:49:14;;;;;;;14.30;7.38;;;;;;;;;;6138328;23;20333;-86
2023/05/19 04:51:40;;;;;;;18.13;8.02;;;;;;;;;;6189184;23;20051;-86
2023/05/19 04:54:08;;;;;;;16.45;8.52;;;;;;;;;;6138612;23;20013;-85
2023/05/19 04:56:35;;;;;;;16.08;8.48;;;;;;;;;;6161973;23;20108;-85
2023/05/19 04:59:01;;;;;;;22.90;10.32;;;;;;;;;;6160066;23;20043;-84
2023/05/19 05:01:27;;;;;;;25.13;11.52;;;;;;;;;;6161504;23;20053;-86
2023/05/19 05:03:54;;;;;;;20.65;10.50;;;;;;;;;;6137097;23;20051;-86
2023/05/19 05:06:23;;;;;;;20.67;9.60;;;;;;;;;;6162312;23;20088;-86
2023/05/19 05:08:49;;;;;;;20.25;8.90;;;;;;;;;;6137099;23;20019;-85
2023/05/19 05:11:16;;;;;;;20.27;8.85;;;;;;;;;;6161705;23;20173;-86
2023/05/19 05:13:42;;;;;;;19.60;8.90;;;;;;;;;;6136280;23;20013;-85
2023/05/19 05:16:08;;;;;;;16.05;8.15;;;;;;;;;;6160756;23;20063;-85
2023/05/19 05:18:37;;;;;;;19.05;8.18;;;;;;;;;;6137095;23;20036;-85
2023/05/19 05:21:03;;;;;;;16.40;7.82;;;;;;;;;;6187077;23;20031;-85
2023/05/19 05:23:29;;;;;;;19.13;7.75;;;;;;;;;;6135589;23;20016;-85
2023/05/19 05:25:55;;;;;;;19.90;7.10;;;;;;;;;;6159456;23;20377;-85
2023/05/19 05:28:22;;;;;;;18.50;6.97;;;;;;;;;;6159396;23;20009;-86
2023/05/19 05:30:48;;;;;;;20.45;6.65;;;;;;;;;;6135530;23;20017;-85
2023/05/19 05:33:14;;;;;;;17.92;6.32;;;;;;;;;;6135924;23;20055;-85
2023/05/19 05:35:40;;;;;;;14.77;5.40;;;;;;;;;;6161134;23;20017;-86
2023/05/19 05:38:06;;;;;;;14.50;5.40;;;;;;;;;;6162389;23;20009;-86
2023/05/19 05:40:33;;;;;;;14.60;5.50;;;;;;;;;;6162555;23;20028;-88
2023/05/19 05:42:58;;;;;;;15.60;5.28;;;;;;;;;;6187973;23;20020;-87
2023/05/19 05:45:25;;;;;;;15.07;4.93;;;;;;;;;;6163149;23;20016;-88
2023/05/19 05:47:51;;;;;;;14.48;5.25;;;;;;;;;;6189069;23;20436;-87
2023/05/19 05:50:17;;;;;;;13.52;5.18;;;;;;;;;;6168138;23;20016;-87
2023/05/19 05:52:47;;;;;;;16.23;5.18;;;;;;;;;;6166638;23;20337;-87
2023/05/19 05:55:13;;;;;;;14.35;4.45;;;;;;;;;;6141429;23;20096;-88
2023/05/19 05:57:42;;;;;;;12.60;4.70;;;;;;;;;;6139872;23;20072;-87
2023/05/19 06:00:14;;;;;;;13.20;5.13;;;;;;;;;;6164471;23;20111;-86
2023/05/19 06:02:40;;;;;;;11.00;4.63;;;;;;;;;;6138720;23;20013;-85
2023/05/19 06:05:06;;;;;;;13.48;4.50;;;;;;;;;;6165122;23;20160;-86
2023/05/19 06:07:32;;;;;;;13.63;5.28;;;;;;;;;;6140268;23;20013;-84
2023/05/19 06:09:58;;;;;;;12.98;5.25;;;;;;;;;;6186526;23;20021;-85
2023/05/19 06:12:26;;;;;;;11.43;4.75;;;;;;;;;;6134648;23;20014;-84
2023/05/19 06:14:52;;;;;;;14.25;4.93;;;;;;;;;;6159888;23;20013;-84
2023/05/19 06:17:18;;;;;;;14.18;5.22;;;;;;;;;;6161264;23;20017;-85
2023/05/19 06:19:44;;;;;;;11.00;4.78;;;;;;;;;;6162018;23;20041;-85
2023/05/19 06:22:10;;;;;;;11.05;5.00;;;;;;;;;;6187425;23;20031;-86
2023/05/19 06:24:36;;;;;;;14.38;5.25;;;;;;;;;;6136627;23;20017;-86
2023/05/19 06:27:02;;;;;;;11.52;4.70;;;;;;;;;;6131882;23;20024;-86
2023/05/19 06:29:28;;;;;;;12.93;5.03;;;;;;;;;;6132142;23;20051;-87
2023/05/19 06:31:54;;;;;;;13.05;5.22;;;;;;;;;;6156506;23;20456;-84
2023/05/19 06:34:21;;;;;;;13.25;5.00;;;;;;;;;;6156826;23;20036;-88
2023/05/19 06:36:46;;;;;;;18.98;5.63;;;;;;;;;;6132245;23;20045;-87
2023/05/19 06:39:13;;;;;;;14.48;5.18;;;;;;;;;;6131714;23;20032;-85
2023/05/19 06:41:38;;;;;;;12.05;4.20;;;;;;;;;;6131334;23;20013;-85
2023/05/19 06:44:07;;;;;;;8.93;3.40;;;;;;;;;;6156300;23;20017;-85
2023/05/19 06:46:33;;;;;;;10.35;3.40;;;;;;;;;;6156296;23;20024;-85
2023/05/19 06:48:59;;;;;;;6.63;3.08;;;;;;;;;;6131585;23;20326;-85
2023/05/19 06:51:25;;;;;;;9.05;3.38;;;;;;;;;;6131142;23;20017;-85
2023/05/19 06:53:51;;;;;;;9.05;3.20;;;;;;;;;;6154007;23;20067;-85
2023/05/19 06:56:17;;;;;;;10.07;3.08;;;;;;;;;;6154595;23;20096;-86
2023/05/19 06:58:44;;;;;;;8.50;3.13;;;;;;;;;;6181162;23;20100;-86
2023/05/19 07:01:10;;;;;;;7.95;2.70;;;;;;;;;;6154587;23;20009;-85
2023/05/19 07:03:36;;;;;;;10.63;3.03;;;;;;;;;;6155046;23;20048;-87
2023/05/19 07:06:02;;;;;;;10.23;3.20;;;;;;;;;;6155582;23;20028;-87
2023/05/19 07:08:28;;;;;;;11.73;3.03;;;;;;;;;;6156236;23;20025;-88
2023/05/19 07:10:54;;;;;;;8.05;3.00;;;;;;;;;;6156722;23;20108;-87
2023/05/19 07:13:21;;;;;;;10.82;3.25;;;;;;;;;;6132150;23;20032;-88
2023/05/19 07:15:51;;;;;;;8.48;3.20;;;;;;;;;;6182734;23;20051;-88
2023/05/19 07:18:18;;;;;;;10.80;2.97;;;;;;;;;;6156689;23;20017;-88
2023/05/19 07:20:44;;;;;;;8.48;3.00;;;;;;;;;;6156752;23;20347;-88
2023/05/19 07:23:10;;;;;;;8.23;2.75;;;;;;;;;;6156386;23;20105;-88
2023/05/19 07:25:36;;;;;;;8.73;3.50;;;;;;;;;;6156383;23;20092;-88
2023/05/19 07:28:02;;;;;;;11.35;2.90;;;;;;;;;;6131369;23;20091;-87
2023/05/19 07:30:28;;;;;;;9.68;2.90;;;;;;;;;;6182736;23;20025;-87
2023/05/19 07:32:55;;;;;;;8.90;3.00;;;;;;;;;;6155812;23;20013;-86
2023/05/19 07:35:24;;;;;;;10.52;3.13;;;;;;;;;;6155501;23;20013;-83
2023/05/19 07:37:51;;;;;;;10.73;3.35;;;;;;;;;;6155060;23;20009;-82
2023/05/19 07:40:17;;;;;;;9.93;3.20;;;;;;;;;;6155711;23;20013;-82
2023/05/19 07:42:43;;;;;;;11.25;3.28;;;;;;;;;;6155758;23;20024;-83
2023/05/19 07:45:10;;;;;;;12.73;3.13;;;;;;;;;;6182842;23;20017;-83
2023/05/19 07:47:36;;;;;;;11.48;3.10;;;;;;;;;;6155686;23;20013;-83
2023/05/19 07:50:03;;;;;;;10.15;2.80;;;;;;;;;;6155818;23;20017;-87
2023/05/19 07:52:29;;;;;;;7.30;2.95;;;;;;;;;;6183015;23;20455;-87
2023/05/19 07:54:55;;;;;;;10.13;3.00;;;;;;;;;;6133200;23;20092;-87
2023/05/19 07:57:21;;;;;;;6.82;2.67;;;;;;;;;;6157760;23;20045;-87
2023/05/19 07:59:47;;;;;;;7.85;2.88;;;;;;;;;;6157478;23;20456;-87
2023/05/19 08:02:13;;;;;;;9.93;2.33;;;;;;;;;;6157933;23;20021;-87
2023/05/19 08:04:39;;;;;;;8.10;2.60;;;;;;;;;;6157968;23;20062;-87
2023/05/19 08:07:05;;;;;;;8.35;2.95;;;;;;;;;;6157149;23;20321;-87
2023/05/19 08:09:31;;;;;;;8.82;2.83;;;;;;;;;;6157772;23;20341;-87
2023/05/19 08:11:57;;;;;;;8.70;2.95;;;;;;;;;;6155771;23;20019;-87
2023/05/19 08:14:23;;;;;;;6.25;2.40;;;;;;;;;;6155923;23;20013;-87
2023/05/19 08:16:50;;;;;;;9.43;2.83;;;;;;;;;;6156196;23;20348;-87
2023/05/19 08:19:17;;;;;;;7.97;2.60;;;;;;;;;;6183133;23;20445;-87
2023/05/19 08:21:44;;;;;;;9.52;2.60;;;;;;;;;;6155804;23;20020;-87
2023/05/19 08:24:10;;;;;;;7.47;2.40;;;;;;;;;;6156844;23;20016;-87
2023/05/19 08:26:36;;;;;;;7.10;2.33;;;;;;;;;;6184762;23;20020;-87
2023/05/19 08:29:02;;;;;;;10.25;2.25;;;;;;;;;;6184325;23;20009;-87
2023/05/19 08:31:28;;;;;;;6.18;2.13;;;;;;;;;;6158318;23;20416;-87
2023/05/19 08:33:54;;;;;;;7.38;2.42;;;;;;;;;;6184466;23;20108;-87
2023/05/19 08:36:22;;;;;;;6.45;2.40;;;;;;;;;;6184061;23;20017;-86
2023/05/19 08:38:48;;;;;;;8.90;2.55;;;;;;;;;;6184515;23;20017;-87
2023/05/19 08:41:14;;;;;;;10.25;2.05;;;;;;;;;;6158049;23;20013;-87
2023/05/19 08:43:40;;;;;;;6.28;2.30;;;;;;;;;;6165093;23;20472;-86
2023/05/19 08:46:06;;;;;;;6.30;2.05;;;;;;;;;;6138630;23;20013;-86
2023/05/19 08:48:34;;;;;;;11.63;2.95;;;;;;;;;;6163567;23;20127;-86
2023/05/19 08:51:20;;;;;;;7.50;2.40;;;;;;;;;;6190636;23;20026;-85
2023/05/19 08:53:48;;;;;;;9.32;2.85;;;;;;;;;;6138797;23;20013;-86
2023/05/19 08:56:17;;;;;;;8.38;2.58;;;;;;;;;;6161492;23;20013;-84
2023/05/19 08:58:44;;;;;;;7.80;2.22;;;;;;;;;;6162502;23;20023;-84
2023/05/19 09:01:15;;;;;;;11.65;2.65;;;;;;;;;;6136036;23;20325;-85
2023/05/19 09:03:42;;;;;;;6.38;2.03;;;;;;;;;;6135378;23;20341;-84
2023/05/19 09:06:11;;;;;;;6.28;2.25;;;;;;;;;;6158630;23;20028;-83
2023/05/19 09:08:37;;;;;;;8.05;2.40;;;;;;;;;;6137073;23;20035;-86
2023/05/19 09:11:03;;;;;;;6.32;2.45;;;;;;;;;;6162248;23;20099;-84
2023/05/19 09:13:30;;;;;;;7.15;2.28;;;;;;;;;;6162116;23;20060;-86
2023/05/19 09:15:56;;;;;;;6.15;2.40;;;;;;;;;;6138459;23;20045;-86
2023/05/19 09:18:24;;;;;;;8.27;2.78;;;;;;;;;;6136966;23;20083;-85
2023/05/19 09:20:51;;;;;;;7.05;2.20;;;;;;;;;;6136534;23;20020;-85
2023/05/19 09:23:17;;;;;;;7.18;1.98;;;;;;;;;;6137058;23;20025;-85
2023/05/19 09:25:50;;;;;;;6.45;2.75;;;;;;;;;;6161710;23;20017;-86
2023/05/19 09:28:28;;;;;;;6.25;2.03;;;;;;;;;;6162615;23;20070;-85
2023/05/19 09:31:07;;;;;;;4.90;2.33;;;;;;;;;;6189198;23;20340;-84
2023/05/19 09:33:34;;;;;;;9.45;2.65;;;;;;;;;;6186694;23;20017;-83
2023/05/19 09:36:00;;;;;;;6.72;2.58;;;;;;;;;;6135963;23;20013;-87
2023/05/19 09:38:27;;;;;;;5.53;2.30;;;;;;;;;;6160159;23;20013;-85
2023/05/19 09:40:56;;;;;;;7.88;2.80;;;;;;;;;;6160323;23;20428;-85
2023/05/19 09:43:22;;;;;;;7.57;2.60;;;;;;;;;;6160296;23;20017;-84
2023/05/19 09:45:48;;;;;;;9.52;2.63;;;;;;;;;;6161005;23;20391;-84
2023/05/19 09:48:18;;;;;;;7.78;2.20;;;;;;;;;;6136215;23;20096;-85
2023/05/19 09:50:45;;;;;;;7.18;2.50;;;;;;;;;;6136128;23;20053;-85
2023/05/19 09:53:13;;;;;;;5.88;2.30;;;;;;;;;;6158939;23;20018;-85
2023/05/19 09:55:42;;;;;;;9.07;2.67;;;;;;;;;;6159005;23;20134;-85
2023/05/19 09:58:09;;;;;;;10.52;2.72;;;;;;;;;;6160553;23;20017;-85
2023/05/19 10:00:35;;;;;;;8.45;2.72;;;;;;;;;;6134930;23;20071;-85
2023/05/19 10:03:03;;;;;;;9.85;2.63;;;;;;;;;;6159937;23;20019;-85
2023/05/19 10:05:29;;;;;;;9.73;2.78;;;;;;;;;;6159346;23;20040;-83
2023/05/19 10:07:55;;;;;;;6.47;2.53;;;;;;;;;;6134910;23;20024;-84
2023/05/19 10:10:22;;;;;;;7.55;2.70;;;;;;;;;;6186897;23;20340;-84
2023/05/19 10:12:48;;;;;;;5.60;2.13;;;;;;;;;;6134705;23;20021;-84
2023/05/19 10:15:16;;;;;;;9.98;2.72;;;;;;;;;;6134810;23;20064;-85
2023/05/19 10:17:42;;;;;;;7.55;2.80;;;;;;;;;;6159035;23;20017;-85
2023/05/19 10:20:09;;;;;;;9.75;2.65;;;;;;;;;;6136789;23;20023;-84
2023/05/19 10:22:36;;;;;;;9.52;2.92;;;;;;;;;;6159533;23;20071;-86
2023/05/19 10:25:03;;;;;;;7.13;2.60;;;;;;;;;;6158017;23;20017;-83
2023/05/19 10:27:30;;;;;;;5.35;2.30;;;;;;;;;;6157760;23;20028;-82
2023/05/19 10:29:58;;;;;;;9.27;3.17;;;;;;;;;;6157231;23;20079;-83
2023/05/19 10:32:28;;;;;;;8.10;2.83;;;;;;;;;;6132699;23;20017;-84
2023/05/19 10:35:03;;;;;;;6.72;2.58;;;;;;;;;;6134703;23;20061;-85
2023/05/19 10:37:30;;;;;;;8.50;2.90;;;;;;;;;;6186262;23;20009;-85
2023/05/19 10:39:57;;;;;;;8.13;3.05;;;;;;;;;;6135878;23;20395;-85
2023/05/19 10:42:36;;;;;;;10.05;3.38;;;;;;;;;;6134922;23;20095;-84
2023/05/19 10:45:09;;;;;;;15.20;2.92;;;;;;;;;;6134806;23;20411;-85
2023/05/19 10:47:35;;;;;;;8.73;2.75;;;;;;;;;;6186007;23;20083;-84
2023/05/19 10:50:01;;;;;;;9.07;3.00;;;;;;;;;;6136075;23;20112;-85
2023/05/19 10:52:31;;;;;;;10.48;2.95;;;;;;;;;;6137030;23;20047;-86
2023/05/19 10:54:57;;;;;;;8.98;3.42;;;;;;;;;;6135764;23;20318;-85
2023/05/19 10:57:27;;;;;;;7.60;3.15;;;;;;;;;;6136095;23;20006;-84
2023/05/19 10:59:55;;;;;;;9.63;3.22;;;;;;;;;;6161816;23;20013;-85
2023/05/19 11:02:36;;;;;;;9.77;3.47;;;;;;;;;;6186671;23;20048;-85
2023/05/19 11:05:08;;;;;;;7.47;3.03;;;;;;;;;;6159423;23;20016;-85
2023/05/19 11:07:34;;;;;;;12.10;3.20;;;;;;;;;;6134544;23;20263;-83
2023/05/19 11:10:04;;;;;;;10.57;3.38;;;;;;;;;;6157133;23;20373;-83
2023/05/19 11:12:39;;;;;;;13.63;2.85;;;;;;;;;;6133845;23;20448;-84
2023/05/19 11:15:06;;;;;;;9.60;3.00;;;;;;;;;;6134629;23;20017;-85
2023/05/19 11:17:34;;;;;;;8.10;3.10;;;;;;;;;;6157703;23;20053;-84
2023/05/19 11:20:00;;;;;;;8.90;2.78;;;;;;;;;;6159128;23;20017;-85
2023/05/19 11:22:27;;;;;;;12.13;3.42;;;;;;;;;;6133834;23;20015;-83
2023/05/19 11:24:56;;;;;;;10.60;3.03;;;;;;;;;;6136418;23;20122;-85
2023/05/19 11:27:27;;;;;;;7.13;3.28;;;;;;;;;;6135441;23;20013;-83
2023/05/19 11:30:00;;;;;;;7.70;3.05;;;;;;;;;;6135971;23;20387;-85
2023/05/19 11:32:28;;;;;;;8.00;3.50;;;;;;;;;;6158809;23;20339;-83
2023/05/19 11:34:54;;;;;;;9.70;3.42;;;;;;;;;;6132805;23;20452;-83
2023/05/19 11:37:20;;;;;;;9.05;3.10;;;;;;;;;;6157039;23;20020;-83
2023/05/19 11:39:46;;;;;;;9.38;2.83;;;;;;;;;;6157380;23;20380;-82
2023/05/19 11:42:13;;;;;;;7.13;3.05;;;;;;;;;;6132820;23;20020;-82
2023/05/19 11:44:44;;;;;;;7.50;3.17;;;;;;;;;;6131805;23;20105;-83
2023/05/19 11:47:10;;;;;;;10.60;3.03;;;;;;;;;;6132196;23;20377;-83
2023/05/19 11:49:36;;;;;;;9.88;2.80;;;;;;;;;;6157769;23;20166;-82
2023/05/19 11:52:03;;;;;;;9.32;3.38;;;;;;;;;;6156450;23;20017;-84
2023/05/19 11:54:31;;;;;;;8.20;3.70;;;;;;;;;;6158120;23;20013;-85
2023/05/19 11:56:57;;;;;;;10.70;3.40;;;;;;;;;;6186800;23;20020;-84
2023/05/19 11:59:32;;;;;;;9.65;3.25;;;;;;;;;;6185283;23;20448;-86
2023/05/19 12:02:02;;;;;;;10.02;3.35;;;;;;;;;;6159713;23;20456;-86
2023/05/19 12:04:30;;;;;;;11.15;3.75;;;;;;;;;;6160797;23;20019;-85
2023/05/19 12:06:56;;;;;;;8.63;3.17;;;;;;;;;;6135176;23;20010;-84
2023/05/19 12:09:25;;;;;;;10.13;3.70;;;;;;;;;;6159838;23;20044;-85
2023/05/19 12:11:51;;;;;;;8.52;3.15;;;;;;;;;;6159458;23;20013;-86
2023/05/19 12:14:18;;;;;;;8.38;3.22;;;;;;;;;;6155028;23;20492;-86
2023/05/19 12:16:44;;;;;;;9.32;3.92;;;;;;;;;;6155219;23;20028;-86
2023/05/19 12:19:15;;;;;;;9.52;3.05;;;;;;;;;;6182693;23;20340;-86
2023/05/19 12:21:42;;;;;;;11.27;3.73;;;;;;;;;;6156292;23;20040;-82
2023/05/19 12:24:09;;;;;;;8.13;3.15;;;;;;;;;;6155285;23;20009;-82
2023/05/19 12:26:36;;;;;;;9.40;3.22;;;;;;;;;;6155502;23;20021;-83
2023/05/19 12:29:05;;;;;;;14.05;3.47;;;;;;;;;;6154729;23;20020;-83
2023/05/19 12:31:32;;;;;;;9.07;3.45;;;;;;;;;;6182989;23;20510;-86
2023/05/19 12:33:58;;;;;;;9.70;3.20;;;;;;;;;;6155519;23;20074;-86
2023/05/19 12:36:27;;;;;;;8.07;3.33;;;;;;;;;;6155651;23;20504;-85
2023/05/19 12:38:54;;;;;;;10.55;3.60;;;;;;;;;;6132712;23;20020;-86
2023/05/19 12:41:20;;;;;;;9.02;3.50;;;;;;;;;;6157427;23;20036;-84
2023/05/19 12:43:46;;;;;;;7.57;3.00;;;;;;;;;;6132444;23;20511;-85
2023/05/19 12:46:12;;;;;;;15.25;4.22;;;;;;;;;;6156912;23;20055;-85
2023/05/19 12:48:45;;;;;;;11.05;3.25;;;;;;;;;;6129718;23;20107;-85
2023/05/19 12:51:18;;;;;;;9.77;3.42;;;;;;;;;;6132228;23;20024;-86
2023/05/19 12:53:44;;;;;;;8.18;3.00;;;;;;;;;;6183901;23;20017;-84
2023/05/19 12:56:14;;;;;;;12.27;3.55;;;;;;;;;;6156542;23;20009;-85
2023/05/19 12:58:41;;;;;;;8.52;3.05;;;;;;;;;;6183935;23;20337;-85
2023/05/19 13:01:07;;;;;;;8.88;3.08;;;;;;;;;;6132449;23;20048;-85
2023/05/19 13:03:39;;;;;;;11.25;3.17;;;;;;;;;;6157588;23;20020;-84
2023/05/19 13:06:05;;;;;;;11.10;3.80;;;;;;;;;;6157304;23;20262;-84
2023/05/19 13:08:31;;;;;;;8.45;3.05;;;;;;;;;;6156773;23;20028;-84
2023/05/19 13:10:57;;;;;;;8.32;3.00;;;;;;;;;;6156505;23;20037;-84
2023/05/19 13:13:23;;;;;;;9.73;3.03;;;;;;;;;;6157432;23;20104;-84
2023/05/19 13:15:52;;;;;;;8.32;3.00;;;;;;;;;;6132142;23;20005;-85
2023/05/19 13:18:19;;;;;;;8.52;3.78;;;;;;;;;;6133053;23;20392;-84
2023/05/19 13:20:46;;;;;;;8.55;3.22;;;;;;;;;;6156713;23;20009;-85
2023/05/19 13:23:13;;;;;;;8.20;3.15;;;;;;;;;;6184438;23;20112;-84
2023/05/19 13:25:40;;;;;;;8.85;2.58;;;;;;;;;;6156522;23;20024;-85
2023/05/19 13:28:06;;;;;;;8.25;3.30;;;;;;;;;;6157023;23;20028;-82
2023/05/19 13:30:32;;;;;;;7.68;2.58;;;;;;;;;;6183161;23;20331;-83
2023/05/19 13:32:58;;;;;;;7.75;3.00;;;;;;;;;;6181776;23;20071;-84
2023/05/19 13:35:24;;;;;;;9.77;2.70;;;;;;;;;;6182965;23;20518;-84
2023/05/19 13:37:50;;;;;;;10.57;2.80;;;;;;;;;;6156747;23;20088;-83
2023/05/19 13:40:16;;;;;;;7.82;3.03;;;;;;;;;;6156428;23;20376;-83
2023/05/19 13:42:42;;;;;;;6.78;2.53;;;;;;;;;;6132221;23;20088;-83
2023/05/19 13:45:09;;;;;;;10.35;2.97;;;;;;;;;;6183648;23;20021;-83
2023/05/19 13:47:35;;;;;;;5.97;2.42;;;;;;;;;;6157372;23;20115;-83
2023/05/19 13:50:03;;;;;;;8.77;3.08;;;;;;;;;;6156520;23;20024;-83
2023/05/19 13:52:32;;;;;;;11.13;2.35;;;;;;;;;;6156826;23;20088;-84
2023/05/19 13:54:58;;;;;;;9.25;2.75;;;;;;;;;;6156212;23;20087;-84
2023/05/19 13:57:25;;;;;;;5.95;2.33;;;;;;;;;;6132130;23;20400;-84
2023/05/19 13:59:51;;;;;;;9.18;3.05;;;;;;;;;;6156697;23;20016;-84
2023/05/19 14:02:17;;;;;;;9.80;2.72;;;;;;;;;;6132383;23;20417;-84
2023/05/19 14:04:45;;;;;;;10.48;3.00;;;;;;;;;;6183817;23;20013;-84
2023/05/19 14:07:11;;;;;;;7.40;3.03;;;;;;;;;;6131784;23;20016;-82
2023/05/19 14:09:37;;;;;;;10.95;3.00;;;;;;;;;;6131304;23;20020;-86
2023/05/19 14:12:04;;;;;;;7.80;3.22;;;;;;;;;;6133490;23;20400;-84
2023/05/19 14:14:30;;;;;;;9.38;3.25;;;;;;;;;;6132590;23;20128;-84
2023/05/19 14:16:56;;;;;;;12.13;3.00;;;;;;;;;;6156454;23;20091;-86
2023/05/19 14:19:22;;;;;;;9.57;3.17;;;;;;;;;;6157168;23;20094;-86
2023/05/19 14:21:49;;;;;;;9.75;2.95;;;;;;;;;;6156661;23;20024;-83
2023/05/19 14:24:16;;;;;;;10.55;2.78;;;;;;;;;;6131248;23;20013;-82
2023/05/19 14:26:42;;;;;;;7.13;3.10;;;;;;;;;;6131788;23;20017;-84
2023/05/19 14:29:08;;;;;;;9.15;3.13;;;;;;;;;;6131901;23;20013;-83
2023/05/19 14:31:34;;;;;;;11.02;2.83;;;;;;;;;;6156802;23;20013;-82
2023/05/19 14:34:00;;;;;;;8.80;3.05;;;;;;;;;;6156776;23;20017;-81
2023/05/19 14:36:26;;;;;;;8.93;3.58;;;;;;;;;;6156605;23;20013;-84